createdAt,value
2018-12-06T00:01:55.889Z,14.70
2018-12-06T00:04:25.343Z,16.23
2018-12-06T00:06:54.184Z,16.63
2018-12-06T00:09:23.001Z,18.07
2018-12-06T00:11:52.795Z,14.30
2018-12-06T00:14:21.595Z,16.10
2018-12-06T00:16:59.116Z,17.00
2018-12-06T00:19:27.900Z,17.03
2018-12-06T00:21:56.810Z,16.63
2018-12-06T00:24:25.623Z,15.43
2018-12-06T00:26:54.487Z,17.33
2018-12-06T00:29:23.320Z,16.87
2018-12-06T00:31:52.878Z,16.73
2018-12-06T00:34:21.710Z,15.67
2018-12-06T00:36:50.506Z,15.87
2018-12-06T00:39:19.315Z,16.20
2018-12-06T00:41:48.131Z,15.17
2018-12-06T00:44:16.934Z,13.27
2018-12-06T00:46:45.764Z,14.87
2018-12-06T00:49:15.499Z,15.63
2018-12-06T00:51:44.584Z,15.97
2018-12-06T00:54:13.410Z,16.67
2018-12-06T00:56:42.247Z,15.20
2018-12-06T00:59:14.722Z,14.33
2018-12-06T01:01:43.599Z,15.87
2018-12-06T01:04:12.389Z,14.90
2018-12-06T01:06:41.208Z,13.73
2018-12-06T01:09:10.013Z,15.33
2018-12-06T01:11:38.833Z,13.90
2018-12-06T01:14:07.637Z,13.23
2018-12-06T01:16:36.675Z,14.50
2018-12-06T01:19:06.500Z,15.17
2018-12-06T01:21:35.732Z,14.43
2018-12-06T01:24:05.075Z,13.23
2018-12-06T01:26:33.885Z,14.33
2018-12-06T01:29:02.676Z,15.50
2018-12-06T01:31:33.562Z,14.60
2018-12-06T01:34:03.027Z,17.00
2018-12-06T01:36:33.236Z,15.57
2018-12-06T01:39:02.130Z,15.90
2018-12-06T01:41:31.500Z,18.20
2018-12-06T01:44:00.619Z,15.77
2018-12-06T01:46:29.431Z,16.77
2018-12-06T01:48:58.327Z,17.00
2018-12-06T01:51:27.931Z,17.37
2018-12-06T01:53:56.755Z,16.67
2018-12-06T01:56:25.570Z,15.47
2018-12-06T01:58:55.044Z,16.13
2018-12-06T02:01:23.948Z,17.93
2018-12-06T02:03:52.756Z,15.10
2018-12-06T02:06:21.592Z,15.20
2018-12-06T02:08:51.111Z,16.10
2018-12-06T02:11:19.916Z,15.30
2018-12-06T02:13:48.718Z,15.50
2018-12-06T02:16:17.668Z,17.23
2018-12-06T02:18:46.511Z,15.37
2018-12-06T02:21:15.326Z,15.47
2018-12-06T02:23:44.191Z,14.93
2018-12-06T02:26:14.685Z,15.00
2018-12-06T02:28:43.538Z,16.03
2018-12-06T02:31:12.652Z,15.63
2018-12-06T02:33:42.142Z,14.77
2018-12-06T02:36:11.673Z,14.73
2018-12-06T02:38:40.489Z,15.97
2018-12-06T02:41:09.307Z,14.77
2018-12-06T02:43:38.101Z,14.93
2018-12-06T02:46:06.936Z,15.27
2018-12-06T02:48:35.727Z,15.07
2018-12-06T02:51:04.992Z,14.33
2018-12-06T02:53:33.795Z,15.03
2018-12-06T02:56:02.601Z,14.77
2018-12-06T02:58:32.136Z,14.10
2018-12-06T03:01:00.947Z,13.80
2018-12-06T03:03:30.067Z,14.60
2018-12-06T03:05:58.899Z,14.23
2018-12-06T03:08:28.248Z,13.87
2018-12-06T03:10:57.052Z,14.87
2018-12-06T03:13:25.882Z,13.63
2018-12-06T03:15:54.896Z,14.60
2018-12-06T03:18:23.704Z,14.73
2018-12-06T03:20:52.518Z,14.10
2018-12-06T03:23:21.372Z,12.13
2018-12-06T03:25:50.235Z,20.27
2018-12-06T03:28:19.027Z,16.60
2018-12-06T03:30:48.025Z,14.93
2018-12-06T03:33:16.871Z,13.40
2018-12-06T03:35:45.698Z,15.13
2018-12-06T03:38:14.498Z,14.57
2018-12-06T03:40:44.527Z,14.13
2018-12-06T03:43:13.373Z,13.77
2018-12-06T03:45:42.202Z,13.63
2018-12-06T03:48:11.601Z,14.80
2018-12-06T03:50:40.535Z,17.30
2018-12-06T03:53:10.000Z,13.37
2018-12-06T03:55:38.847Z,17.97
2018-12-06T03:58:07.652Z,17.73
2018-12-06T04:00:36.483Z,15.40
2018-12-06T04:03:05.520Z,16.87
2018-12-06T04:05:35.044Z,17.83
2018-12-06T04:08:03.852Z,17.13
2018-12-06T04:10:32.725Z,17.00
2018-12-06T04:13:01.695Z,16.97
2018-12-06T04:15:30.573Z,17.30
2018-12-06T04:17:59.384Z,17.70
2018-12-06T04:20:28.687Z,17.93
2018-12-06T04:22:58.157Z,17.33
2018-12-06T04:25:26.959Z,18.20
2018-12-06T04:27:55.826Z,18.00
2018-12-06T04:30:25.106Z,19.90
2018-12-06T04:32:53.924Z,18.63
2018-12-06T04:35:22.735Z,19.93
2018-12-06T04:37:51.554Z,19.13
2018-12-06T04:40:20.364Z,19.03
2018-12-06T04:42:49.210Z,19.20
2018-12-06T04:45:18.039Z,22.27
2018-12-06T04:47:47.563Z,19.33
2018-12-06T04:50:16.365Z,20.83
2018-12-06T04:52:45.205Z,22.70
2018-12-06T04:55:14.018Z,20.40
2018-12-06T04:57:43.549Z,20.73
2018-12-06T05:00:12.387Z,22.17
2018-12-06T05:02:41.187Z,21.93
2018-12-06T05:05:10.545Z,21.73
2018-12-06T05:07:39.788Z,22.60
2018-12-06T05:10:08.688Z,23.47
2018-12-06T05:12:37.521Z,21.43
2018-12-06T05:15:06.351Z,22.77
2018-12-06T05:17:35.989Z,22.03
2018-12-06T05:20:05.253Z,23.50
2018-12-06T05:22:34.055Z,22.60
2018-12-06T05:25:02.882Z,25.30
2018-12-06T05:27:31.700Z,26.33
2018-12-06T05:30:01.479Z,26.83
2018-12-06T05:32:31.366Z,27.67
2018-12-06T05:35:00.190Z,28.23
2018-12-06T05:37:29.033Z,28.60
2018-12-06T05:40:01.115Z,28.60
2018-12-06T05:42:31.789Z,30.73
2018-12-06T05:45:00.622Z,31.37
2018-12-06T05:47:29.430Z,32.27
2018-12-06T05:49:58.275Z,33.50
2018-12-06T05:52:27.112Z,41.13
2018-12-06T05:54:55.959Z,37.50
2018-12-06T05:57:24.792Z,34.97
2018-12-06T05:59:53.613Z,35.00
2018-12-06T06:02:37.785Z,36.37
2018-12-06T06:05:15.125Z,38.63
2018-12-06T06:07:43.963Z,37.47
2018-12-06T06:10:13.328Z,39.03
2018-12-06T06:12:42.826Z,40.20
2018-12-06T06:15:11.695Z,41.07
2018-12-06T06:17:41.203Z,40.90
2018-12-06T06:20:12.769Z,40.63
2018-12-06T06:22:41.612Z,42.40
2018-12-06T06:25:10.516Z,40.50
2018-12-06T06:27:39.952Z,40.57
2018-12-06T06:30:08.855Z,43.40
2018-12-06T06:32:38.335Z,42.93
2018-12-06T06:35:08.275Z,44.93
2018-12-06T06:37:41.408Z,47.47
2018-12-06T06:40:10.188Z,40.50
2018-12-06T06:42:39.061Z,47.23
2018-12-06T06:45:07.889Z,44.03
2018-12-06T06:47:36.710Z,45.10
2018-12-06T06:50:05.612Z,43.63
2018-12-06T06:52:34.443Z,45.27
2018-12-06T06:55:03.312Z,45.17
2018-12-06T06:57:33.111Z,43.00
2018-12-06T07:00:01.931Z,45.90
2018-12-06T07:02:30.747Z,46.07
2018-12-06T07:04:59.559Z,47.70
2018-12-06T07:07:28.914Z,44.93
2018-12-06T07:09:57.708Z,47.20
2018-12-06T07:12:26.535Z,47.43
2018-12-06T07:14:55.338Z,47.27
2018-12-06T07:17:27.699Z,46.93
2018-12-06T07:19:56.556Z,46.93
2018-12-06T07:22:25.397Z,48.63
2018-12-06T07:24:54.220Z,46.70
2018-12-06T07:27:23.039Z,48.43
2018-12-06T07:29:52.121Z,50.93
2018-12-06T07:32:20.959Z,46.63
2018-12-06T07:34:49.849Z,50.70
2018-12-06T07:37:18.664Z,54.03
2018-12-06T07:39:47.504Z,52.47
2018-12-06T07:42:16.377Z,50.60
2018-12-06T07:44:45.241Z,50.93
2018-12-06T07:47:14.051Z,52.80
2018-12-06T07:49:42.951Z,54.37
2018-12-06T07:52:12.761Z,53.90
2018-12-06T07:54:41.706Z,51.10
2018-12-06T07:57:10.861Z,54.67
2018-12-06T07:59:40.276Z,51.13
2018-12-06T08:02:10.273Z,53.10
2018-12-06T08:04:39.260Z,50.00
2018-12-06T08:07:08.119Z,50.13
2018-12-06T08:09:37.862Z,51.30
2018-12-06T08:12:07.359Z,46.70
2018-12-06T08:14:36.156Z,47.73
2018-12-06T08:17:04.993Z,46.93
2018-12-06T08:19:34.132Z,47.80
2018-12-06T08:22:03.914Z,44.77
2018-12-06T08:24:34.165Z,48.73
2018-12-06T08:27:03.074Z,48.73
2018-12-06T08:29:31.872Z,48.33
2018-12-06T08:32:02.377Z,44.93
2018-12-06T08:34:32.767Z,44.27
2018-12-06T08:37:02.108Z,46.10
2018-12-06T08:39:30.949Z,46.53
2018-12-06T08:41:59.799Z,44.53
2018-12-06T08:44:28.627Z,43.90
2018-12-06T08:46:57.450Z,44.37
2018-12-06T08:49:26.297Z,43.90
2018-12-06T08:51:55.237Z,46.63
2018-12-06T08:54:24.068Z,45.77
2018-12-06T08:56:52.878Z,45.47
2018-12-06T08:59:22.728Z,45.90
2018-12-06T09:01:51.548Z,43.60
2018-12-06T09:04:20.350Z,41.87
2018-12-06T09:06:49.184Z,39.87
2018-12-06T09:09:17.999Z,40.70
2018-12-06T09:11:46.824Z,39.73
2018-12-06T09:14:15.636Z,37.93
2018-12-06T09:16:44.504Z,38.70
2018-12-06T09:19:14.749Z,40.57
2018-12-06T09:21:42.167Z,35.60
2018-12-06T09:24:11.001Z,36.97
2018-12-06T09:26:39.827Z,37.97
2018-12-06T09:29:08.629Z,36.20
2018-12-06T09:31:37.432Z,33.63
2018-12-06T09:34:07.229Z,32.13
2018-12-06T09:36:37.286Z,32.10
2018-12-06T09:39:09.256Z,33.43
2018-12-06T09:41:38.175Z,34.93
2018-12-06T09:44:07.057Z,32.70
2018-12-06T09:46:35.871Z,31.03
2018-12-06T09:49:05.085Z,32.33
2018-12-06T09:51:33.916Z,30.17
2018-12-06T09:54:02.746Z,32.17
2018-12-06T09:56:31.642Z,29.63
2018-12-06T09:59:01.716Z,28.20
2018-12-06T10:01:30.550Z,26.87
2018-12-06T10:03:59.368Z,25.53
2018-12-06T10:06:28.184Z,26.07
2018-12-06T10:08:57.007Z,24.23
2018-12-06T10:11:25.823Z,22.17
2018-12-06T10:13:54.631Z,22.23
2018-12-06T10:16:24.852Z,20.27
2018-12-06T10:18:53.672Z,22.13
2018-12-06T10:21:22.516Z,20.30
2018-12-06T10:23:51.358Z,22.40
2018-12-06T10:26:20.292Z,19.73
2018-12-06T10:28:49.103Z,19.37
2018-12-06T10:31:17.928Z,20.67
2018-12-06T10:33:46.752Z,18.70
2018-12-06T10:36:16.375Z,21.47
2018-12-06T10:38:45.241Z,19.67
2018-12-06T10:41:14.108Z,19.57
2018-12-06T10:43:43.031Z,21.33
2018-12-06T10:46:11.886Z,20.03
2018-12-06T10:48:40.704Z,19.97
2018-12-06T10:51:20.964Z,21.37
2018-12-06T10:53:50.048Z,20.70
2018-12-06T10:56:19.601Z,21.30
2018-12-06T10:58:48.403Z,21.47
2018-12-06T11:01:18.799Z,22.30
2018-12-06T11:03:52.921Z,22.87
2018-12-06T11:06:21.735Z,22.97
2018-12-06T11:08:50.603Z,23.37
2018-12-06T11:11:19.386Z,25.03
2018-12-06T11:13:48.218Z,24.27
2018-12-06T11:16:17.058Z,25.13
2018-12-06T11:18:45.952Z,26.73
2018-12-06T11:21:14.820Z,24.00
2018-12-06T11:23:43.704Z,26.00
2018-12-06T11:26:12.608Z,24.97
2018-12-06T11:28:41.353Z,24.57
2018-12-06T11:31:10.200Z,25.40
2018-12-06T11:33:39.298Z,25.57
2018-12-06T11:36:08.097Z,25.67
2018-12-06T11:38:36.978Z,24.77
2018-12-06T11:41:05.815Z,25.87
2018-12-06T11:43:34.663Z,26.23
2018-12-06T11:46:03.493Z,27.97
2018-12-06T11:48:32.328Z,25.63
2018-12-06T11:51:01.140Z,31.70
2018-12-06T11:53:30.011Z,31.30
2018-12-06T11:55:58.881Z,30.80
2018-12-06T11:58:27.780Z,33.47
2018-12-06T12:00:56.592Z,33.50
2018-12-06T12:03:25.482Z,34.07
2018-12-06T12:05:58.509Z,34.73
2018-12-06T12:08:23.123Z,33.97
2018-12-06T12:10:51.992Z,36.33
2018-12-06T12:13:20.828Z,38.43
2018-12-06T12:15:49.683Z,40.03
2018-12-06T12:18:18.531Z,40.00
2018-12-06T12:20:47.363Z,38.43
2018-12-06T12:23:16.282Z,38.90
2018-12-06T12:25:45.097Z,37.87
2018-12-06T12:28:13.973Z,39.00
2018-12-06T12:30:42.912Z,42.03
2018-12-06T12:33:11.724Z,39.50
2018-12-06T12:35:41.205Z,39.27
2018-12-06T12:38:10.001Z,40.13
2018-12-06T12:40:38.816Z,38.00
2018-12-06T12:43:07.672Z,37.60
2018-12-06T12:45:36.527Z,39.33
2018-12-06T12:48:05.400Z,37.90
2018-12-06T12:50:34.255Z,38.47
2018-12-06T12:53:03.583Z,39.63
2018-12-06T12:55:32.431Z,35.40
2018-12-06T12:58:01.384Z,38.03
2018-12-06T13:00:30.251Z,38.60
2018-12-06T13:02:59.067Z,32.20
2018-12-06T13:05:27.862Z,35.90
2018-12-06T13:07:56.816Z,30.97
2018-12-06T13:10:25.618Z,29.10
2018-12-06T13:12:54.408Z,25.80
2018-12-06T13:15:23.285Z,25.33
2018-12-06T13:17:52.108Z,25.73
2018-12-06T13:20:20.948Z,22.93
2018-12-06T13:22:49.829Z,24.40
2018-12-06T13:25:18.631Z,23.77
2018-12-06T13:27:47.488Z,22.97
2018-12-06T13:30:16.343Z,21.43
2018-12-06T13:32:45.256Z,22.27
2018-12-06T13:35:14.030Z,19.93
2018-12-06T13:37:42.929Z,20.67
2018-12-06T13:40:12.337Z,19.60
2018-12-06T13:42:41.172Z,19.57
2018-12-06T13:45:11.016Z,18.03
2018-12-06T13:47:39.797Z,20.17
2018-12-06T13:50:10.720Z,20.33
2018-12-06T13:52:39.624Z,20.50
2018-12-06T13:55:08.441Z,20.37
2018-12-06T13:57:38.157Z,21.33
2018-12-06T14:00:07.980Z,21.20
2018-12-06T14:02:36.791Z,22.37
2018-12-06T14:05:05.637Z,23.93
2018-12-06T14:07:34.492Z,20.93
2018-12-06T14:10:04.040Z,20.93
2018-12-06T14:12:33.503Z,20.50
2018-12-06T14:15:02.299Z,18.80
2018-12-06T14:17:31.107Z,18.00
2018-12-06T14:19:59.962Z,17.93
2018-12-06T14:22:28.805Z,17.87
2018-12-06T14:24:58.603Z,18.20
2018-12-06T14:27:27.644Z,16.33
2018-12-06T14:29:56.495Z,17.73
2018-12-06T14:32:25.299Z,17.20
2018-12-06T14:34:54.164Z,16.27
2018-12-06T14:37:22.978Z,18.07
2018-12-06T14:39:51.864Z,17.43
2018-12-06T14:42:20.804Z,17.70
2018-12-06T14:44:49.853Z,20.17
2018-12-06T14:47:18.648Z,17.23
2018-12-06T14:49:47.472Z,18.07
2018-12-06T14:52:16.313Z,17.30
2018-12-06T14:54:45.365Z,16.67
2018-12-06T14:57:14.216Z,17.83
2018-12-06T14:59:43.166Z,18.83
2018-12-06T15:02:12.047Z,19.43
2018-12-06T15:04:47.929Z,22.27
2018-12-06T15:07:24.267Z,18.83
2018-12-06T15:09:54.190Z,19.80
2018-12-06T15:12:55.480Z,21.07
2018-12-06T15:15:26.080Z,18.83
2018-12-06T15:17:54.971Z,21.63
2018-12-06T15:20:23.793Z,23.03
2018-12-06T15:23:07.855Z,26.87
2018-12-06T15:25:41.768Z,25.30
2018-12-06T15:28:07.918Z,25.27
2018-12-06T15:30:38.732Z,24.00
2018-12-06T15:33:08.753Z,25.97
2018-12-06T15:35:38.197Z,27.03
2018-12-06T15:38:08.128Z,24.57
2018-12-06T15:40:52.776Z,26.60
2018-12-06T15:43:23.717Z,26.87
2018-12-06T15:45:52.767Z,28.30
2018-12-06T15:48:30.630Z,29.17
2018-12-06T15:50:59.485Z,26.93
2018-12-06T15:53:29.291Z,25.77
2018-12-06T15:55:59.339Z,28.60
2018-12-06T15:58:28.125Z,27.17
2018-12-06T16:00:56.977Z,27.77
2018-12-06T16:03:25.837Z,28.47
2018-12-06T16:05:54.655Z,25.23
2018-12-06T16:08:24.670Z,25.10
2018-12-06T16:10:53.500Z,25.07
2018-12-06T16:13:22.350Z,24.87
2018-12-06T16:15:51.146Z,25.50
2018-12-06T16:18:19.963Z,27.03
2018-12-06T16:20:49.786Z,29.23
2018-12-06T16:23:18.644Z,31.33
2018-12-06T16:25:47.475Z,33.63
2018-12-06T16:28:16.361Z,38.63
2018-12-06T16:30:45.260Z,37.80
2018-12-06T16:33:14.139Z,31.07
2018-12-06T16:35:43.159Z,30.50
2018-12-06T16:38:11.937Z,24.77
2018-12-06T16:40:40.781Z,25.37
2018-12-06T16:43:09.591Z,27.97
2018-12-06T16:45:38.396Z,28.87
2018-12-06T16:48:08.589Z,26.33
2018-12-06T16:50:38.806Z,27.30
2018-12-06T16:53:08.123Z,28.03
2018-12-06T16:55:37.623Z,33.30
2018-12-06T16:58:06.484Z,37.83
2018-12-06T17:00:35.336Z,38.97
2018-12-06T17:03:05.379Z,30.43
2018-12-06T17:05:34.214Z,30.13
2018-12-06T17:08:03.055Z,31.23
2018-12-06T17:10:31.985Z,28.90
2018-12-06T17:13:00.792Z,31.47
2018-12-06T17:15:29.680Z,31.50
2018-12-06T17:17:58.531Z,29.80
2018-12-06T17:20:27.352Z,31.10
2018-12-06T17:22:56.399Z,30.13
2018-12-06T17:25:25.216Z,27.93
2018-12-06T17:27:57.825Z,32.47
2018-12-06T17:30:26.696Z,32.00
2018-12-06T17:32:55.671Z,32.13
2018-12-06T17:35:28.491Z,33.07
2018-12-06T17:37:57.912Z,33.80
2018-12-06T17:40:28.261Z,33.90
2018-12-06T17:42:57.124Z,34.57
2018-12-06T17:45:27.019Z,32.57
2018-12-06T17:47:55.977Z,31.97
2018-12-06T17:50:24.831Z,31.33
2018-12-06T17:52:53.728Z,31.80
2018-12-06T17:55:22.565Z,32.23
2018-12-06T17:57:53.114Z,33.97
2018-12-06T18:00:22.884Z,36.57
2018-12-06T18:02:51.760Z,45.57
2018-12-06T18:05:20.604Z,36.97
2018-12-06T18:07:49.425Z,36.47
2018-12-06T18:10:19.244Z,33.80
2018-12-06T18:12:48.092Z,34.97
2018-12-06T18:15:16.983Z,33.37
2018-12-06T18:17:46.313Z,35.17
2018-12-06T18:20:15.234Z,36.77
2018-12-06T18:22:45.075Z,36.40
2018-12-06T18:25:13.944Z,36.47
2018-12-06T18:27:45.051Z,33.00
2018-12-06T18:30:13.879Z,46.40
2018-12-06T18:32:43.896Z,39.73
2018-12-06T18:35:12.707Z,40.33
2018-12-06T18:37:41.540Z,35.33
2018-12-06T18:40:11.338Z,34.43
2018-12-06T18:42:40.197Z,35.13
2018-12-06T18:45:09.040Z,33.10
2018-12-06T18:47:37.927Z,34.17
2018-12-06T18:50:13.209Z,34.43
2018-12-06T18:52:42.011Z,31.67
2018-12-06T18:55:10.916Z,32.23
2018-12-06T18:57:40.852Z,33.17
2018-12-06T19:00:10.954Z,29.10
2018-12-06T19:02:39.823Z,28.03
2018-12-06T19:05:08.661Z,25.73
2018-12-06T19:07:39.405Z,26.60
2018-12-06T19:10:08.255Z,25.47
2018-12-06T19:12:37.136Z,25.93
2018-12-06T19:15:05.971Z,23.33
2018-12-06T19:17:34.873Z,23.20
2018-12-06T19:20:04.691Z,22.30
2018-12-06T19:22:33.533Z,23.87
2018-12-06T19:25:03.339Z,21.50
2018-12-06T19:27:32.151Z,21.47
2018-12-06T19:30:01.692Z,21.33
2018-12-06T19:32:30.524Z,20.77
2018-12-06T19:34:59.712Z,20.87
2018-12-06T19:37:28.520Z,20.43
2018-12-06T19:39:57.392Z,20.07
2018-12-06T19:42:26.339Z,21.03
2018-12-06T19:44:55.198Z,20.90
2018-12-06T19:47:24.100Z,20.60
2018-12-06T19:49:52.974Z,22.30
2018-12-06T19:52:21.816Z,23.30
2018-12-06T19:54:50.638Z,21.03
2018-12-06T19:57:19.451Z,23.07
2018-12-06T19:59:49.092Z,21.37
2018-12-06T20:02:18.544Z,22.20
2018-12-06T20:04:47.373Z,22.60
2018-12-06T20:07:16.283Z,23.07
2018-12-06T20:09:45.116Z,22.50
2018-12-06T20:12:13.991Z,24.03
2018-12-06T20:14:42.826Z,23.57
2018-12-06T20:17:11.661Z,28.90
2018-12-06T20:19:40.468Z,36.20
2018-12-06T20:22:09.287Z,30.67
2018-12-06T20:24:38.327Z,25.53
2018-12-06T20:27:07.315Z,24.87
2018-12-06T20:29:42.705Z,26.47
2018-12-06T20:32:14.619Z,26.10
2018-12-06T20:34:42.688Z,26.47
2018-12-06T20:37:12.769Z,27.30
2018-12-06T20:39:41.612Z,25.80
2018-12-06T20:42:10.432Z,27.13
2018-12-06T20:44:39.292Z,25.53
2018-12-06T20:47:08.191Z,26.97
2018-12-06T20:49:37.016Z,31.93
2018-12-06T20:52:06.875Z,24.37
2018-12-06T20:54:37.539Z,21.83
2018-12-06T20:57:06.424Z,23.43
2018-12-06T20:59:35.315Z,23.23
2018-12-06T21:02:04.130Z,19.93
2018-12-06T21:04:32.956Z,21.70
2018-12-06T21:07:01.780Z,20.87
2018-12-06T21:09:33.149Z,20.67
2018-12-06T21:12:01.945Z,21.80
2018-12-06T21:14:30.861Z,21.90
2018-12-06T21:16:59.737Z,20.13
2018-12-06T21:19:28.572Z,21.40
2018-12-06T21:21:57.409Z,20.77
2018-12-06T21:24:26.328Z,21.43
2018-12-06T21:26:55.175Z,18.60
2018-12-06T21:29:24.497Z,17.03
2018-12-06T21:31:53.338Z,18.03
2018-12-06T21:34:22.291Z,18.03
2018-12-06T21:36:51.349Z,17.40
2018-12-06T21:39:20.258Z,17.67
2018-12-06T21:41:49.520Z,19.13
2018-12-06T21:44:18.364Z,17.60
2018-12-06T21:46:47.424Z,17.77
2018-12-06T21:49:16.244Z,19.60
2018-12-06T21:51:45.079Z,22.00
2018-12-06T21:54:13.913Z,19.03
2018-12-06T21:56:42.784Z,19.43
2018-12-06T21:59:11.609Z,21.15
2018-12-06T22:01:40.458Z,18.70
2018-12-06T22:04:09.340Z,19.30
2018-12-06T22:06:38.174Z,18.53
2018-12-06T22:09:08.256Z,19.67
2018-12-06T22:11:37.128Z,20.50
2018-12-06T22:14:05.953Z,18.73
2018-12-06T22:16:34.798Z,20.93
2018-12-06T22:19:03.610Z,21.33
2018-12-06T22:21:32.430Z,20.20
2018-12-06T22:24:01.283Z,19.87
2018-12-06T22:26:31.499Z,20.83
2018-12-06T22:29:00.624Z,20.60
2018-12-06T22:31:31.503Z,20.47
2018-12-06T22:34:00.334Z,20.83
2018-12-06T22:36:29.698Z,20.23
2018-12-06T22:38:58.527Z,21.43
2018-12-06T22:41:27.360Z,21.97
2018-12-06T22:43:56.235Z,22.70
2018-12-06T22:46:25.243Z,22.67
2018-12-06T22:48:54.286Z,22.70
2018-12-06T22:51:25.259Z,20.00
2018-12-06T22:53:54.337Z,21.50
2018-12-06T22:56:23.340Z,22.97
2018-12-06T22:58:52.121Z,22.40
2018-12-06T23:01:25.149Z,20.97
2018-12-06T23:03:53.991Z,22.43
2018-12-06T23:06:23.037Z,19.73
2018-12-06T23:08:51.835Z,21.43
2018-12-06T23:11:21.640Z,21.53
2018-12-06T23:13:52.127Z,22.43
2018-12-06T23:16:20.992Z,20.50
2018-12-06T23:18:49.815Z,20.93
2018-12-06T23:21:19.148Z,20.23
2018-12-06T23:23:48.116Z,19.87
2018-12-06T23:26:16.961Z,19.23
2018-12-06T23:28:45.780Z,18.73
2018-12-06T23:31:15.487Z,20.07
2018-12-06T23:33:47.811Z,19.80
2018-12-06T23:36:16.627Z,19.87
2018-12-06T23:38:45.447Z,18.77
2018-12-06T23:41:14.286Z,17.90
2018-12-06T23:43:43.164Z,17.63
2018-12-06T23:46:12.989Z,16.90
2018-12-06T23:48:41.896Z,16.87
2018-12-06T23:51:22.060Z,18.33
2018-12-06T23:53:50.869Z,18.47
2018-12-06T23:56:19.733Z,17.97
2018-12-06T23:58:48.514Z,18.17
